Time;durP1;ratioP1;P1;durP2;ratioP2;P2;SDS_P1;SDS_P2;PMS_P1;PMS_P2;Temp;Humidity;BMP_temperature;BMP_pressure;BME280_temperature;BME280_humidity;BME280_pressure;Samples;Min_cycle;Max_cycle;Signal;HPM_P1;HPM_P2
2021/05/02 00:00:31;;;;;;;53.88;31.02;;;;;;;;;;6130093;23;20017;-86
2021/05/02 00:03:00;;;;;;;59.15;30.92;;;;;;;;;;6139067;23;20033;-86
2021/05/02 00:05:32;;;;;;;52.22;30.13;;;;;;;;;;6138461;23;20026;-85
2021/05/02 00:07:59;;;;;;;52.65;31.05;;;;;;;;;;6130160;23;20041;-85
2021/05/02 00:10:27;;;;;;;47.13;28.17;;;;;;;;;;6127119;23;20084;-85
2021/05/02 00:12:54;;;;;;;51.13;27.65;;;;;;;;;;6138933;22;20118;-85
2021/05/02 00:15:21;;;;;;;52.40;30.23;;;;;;;;;;6138658;23;20048;-85
2021/05/02 00:17:48;;;;;;;49.03;28.65;;;;;;;;;;6135769;23;20014;-85
2021/05/02 00:20:22;;;;;;;46.95;27.65;;;;;;;;;;6137397;23;20073;-84
2021/05/02 00:22:50;;;;;;;45.97;28.15;;;;;;;;;;6135805;23;20025;-84
2021/05/02 00:25:18;;;;;;;47.28;28.83;;;;;;;;;;6133516;23;20029;-84
2021/05/02 00:27:47;;;;;;;54.17;29.33;;;;;;;;;;6138128;22;20014;-85
2021/05/02 00:30:15;;;;;;;58.28;31.45;;;;;;;;;;6145620;22;20338;-85
2021/05/02 00:32:48;;;;;;;57.25;29.60;;;;;;;;;;6136973;23;20033;-85
2021/05/02 00:35:18;;;;;;;52.50;30.52;;;;;;;;;;6126717;23;20116;-84
2021/05/02 00:37:45;;;;;;;52.45;30.23;;;;;;;;;;6127442;23;20069;-84
2021/05/02 00:40:18;;;;;;;55.78;32.33;;;;;;;;;;6142510;22;20014;-83
2021/05/02 00:42:49;;;;;;;53.00;31.25;;;;;;;;;;6136168;22;20456;-85
2021/05/02 00:45:25;;;;;;;58.80;34.45;;;;;;;;;;6127139;23;20086;-85
2021/05/02 00:48:03;;;;;;;58.17;33.50;;;;;;;;;;6125757;23;20246;-84
2021/05/02 00:50:38;;;;;;;54.60;32.67;;;;;;;;;;6128978;23;20294;-85
2021/05/02 00:53:13;;;;;;;56.60;31.08;;;;;;;;;;6126104;23;20116;-84
2021/05/02 00:55:49;;;;;;;55.47;33.70;;;;;;;;;;6126513;23;20033;-84
2021/05/02 00:58:25;;;;;;;55.65;33.17;;;;;;;;;;6126313;23;20156;-84
2021/05/02 01:00:51;;;;;;;;;;;;;;;;;;6124543;23;20079;-84
2021/05/02 01:03:19;;;;;;;51.75;29.15;;;;;;;;;;6129993;23;19917;-84
2021/05/02 01:05:46;;;;;;;52.22;30.13;;;;;;;;;;6133301;23;20025;-85
2021/05/02 01:08:13;;;;;;;52.83;30.23;;;;;;;;;;6151519;23;20097;-85
2021/05/02 01:10:39;;;;;;;46.63;28.67;;;;;;;;;;6129455;23;20368;-85
2021/05/02 01:13:07;;;;;;;49.22;29.67;;;;;;;;;;6129750;23;20094;-85
2021/05/02 01:15:34;;;;;;;45.28;26.67;;;;;;;;;;6129666;23;20061;-85
2021/05/02 01:18:10;;;;;;;43.45;25.85;;;;;;;;;;6130206;23;20325;-85
2021/05/02 01:20:43;;;;;;;47.15;28.45;;;;;;;;;;6154698;23;20067;-85
2021/05/02 01:23:12;;;;;;;45.72;27.45;;;;;;;;;;6153953;23;20100;-85
2021/05/02 01:25:51;;;;;;;45.45;27.38;;;;;;;;;;6130728;23;20028;-86
2021/05/02 01:28:18;;;;;;;44.17;27.63;;;;;;;;;;6129269;23;20061;-85
2021/05/02 01:30:44;;;;;;;47.53;27.98;;;;;;;;;;6129954;23;20029;-85
2021/05/02 01:33:11;;;;;;;43.25;27.15;;;;;;;;;;6154237;23;20026;-85
2021/05/02 01:35:37;;;;;;;52.80;28.80;;;;;;;;;;6152643;23;20291;-84
2021/05/02 01:38:03;;;;;;;42.88;26.75;;;;;;;;;;6126380;23;20163;-84
2021/05/02 01:40:30;;;;;;;43.03;26.77;;;;;;;;;;6128645;23;20026;-85
2021/05/02 01:42:56;;;;;;;44.10;27.42;;;;;;;;;;6156203;23;20049;-85
2021/05/02 01:45:22;;;;;;;41.22;26.75;;;;;;;;;;6129552;23;20030;-85
2021/05/02 01:47:51;;;;;;;47.30;27.98;;;;;;;;;;6130175;23;20045;-85
2021/05/02 01:50:17;;;;;;;42.28;27.20;;;;;;;;;;6154547;23;20150;-85
2021/05/02 01:52:52;;;;;;;36.42;23.23;;;;;;;;;;6129618;23;20211;-85
2021/05/02 01:55:19;;;;;;;40.08;25.73;;;;;;;;;;6129424;23;20074;-85
2021/05/02 01:57:50;;;;;;;40.05;25.70;;;;;;;;;;6131554;23;20030;-85
2021/05/02 02:00:19;;;;;;;43.63;25.50;;;;;;;;;;6130130;23;20025;-85
2021/05/02 02:02:46;;;;;;;47.10;28.00;;;;;;;;;;6129231;23;20410;-85
2021/05/02 02:05:13;;;;;;;43.40;26.95;;;;;;;;;;6156612;23;20026;-85
2021/05/02 02:07:40;;;;;;;39.00;25.20;;;;;;;;;;6129893;23;20033;-85
2021/05/02 02:10:07;;;;;;;45.00;27.42;;;;;;;;;;6154431;22;20026;-85
2021/05/02 02:12:36;;;;;;;44.50;27.25;;;;;;;;;;6129243;23;20434;-85
2021/05/02 02:15:03;;;;;;;44.85;26.60;;;;;;;;;;6156921;23;20036;-85
2021/05/02 02:17:32;;;;;;;44.72;27.20;;;;;;;;;;6133561;23;20052;-85
2021/05/02 02:19:59;;;;;;;40.88;26.13;;;;;;;;;;6156603;23;20025;-85
2021/05/02 02:22:26;;;;;;;49.75;27.08;;;;;;;;;;6133236;23;20026;-85
2021/05/02 02:24:58;;;;;;;42.08;26.38;;;;;;;;;;6156592;22;20022;-85
2021/05/02 02:27:32;;;;;;;45.15;27.90;;;;;;;;;;6156792;23;20034;-84
2021/05/02 02:30:04;;;;;;;45.13;25.77;;;;;;;;;;6157224;23;20030;-84
2021/05/02 02:32:41;;;;;;;46.03;27.80;;;;;;;;;;6130545;23;20161;-84
2021/05/02 02:35:08;;;;;;;51.77;29.43;;;;;;;;;;6130310;23;20029;-84
2021/05/02 02:37:35;;;;;;;42.67;26.42;;;;;;;;;;6157502;23;20471;-83
2021/05/02 02:40:03;;;;;;;46.00;26.75;;;;;;;;;;6140305;23;20025;-84
2021/05/02 02:42:39;;;;;;;45.17;26.60;;;;;;;;;;6141188;23;20053;-84
2021/05/02 02:45:07;;;;;;;43.33;27.63;;;;;;;;;;6138521;23;20094;-84
2021/05/02 02:47:36;;;;;;;47.15;28.60;;;;;;;;;;6159408;23;20029;-85
2021/05/02 02:50:06;;;;;;;45.75;27.52;;;;;;;;;;6160210;23;20053;-85
2021/05/02 02:52:40;;;;;;;42.03;25.95;;;;;;;;;;6138132;23;20033;-84
2021/05/02 02:55:09;;;;;;;44.65;26.50;;;;;;;;;;6148203;22;20030;-84
2021/05/02 02:57:57;;;;;;;37.28;24.50;;;;;;;;;;6167906;22;20489;-84
2021/05/02 03:00:25;;;;;;;44.95;26.02;;;;;;;;;;6128930;23;20393;-84
2021/05/02 03:03:03;;;;;;;39.05;24.90;;;;;;;;;;6130650;23;20091;-84
2021/05/02 03:05:31;;;;;;;42.92;25.95;;;;;;;;;;6129936;23;20037;-84
2021/05/02 03:07:58;;;;;;;37.70;24.13;;;;;;;;;;6155279;23;20053;-84
2021/05/02 03:10:25;;;;;;;40.92;25.92;;;;;;;;;;6130519;23;20347;-85
2021/05/02 03:12:53;;;;;;;37.88;23.95;;;;;;;;;;6156099;23;20073;-85
2021/05/02 03:15:20;;;;;;;45.92;26.08;;;;;;;;;;6155470;23;20096;-86
2021/05/02 03:17:56;;;;;;;37.55;24.70;;;;;;;;;;6130942;23;20340;-85
2021/05/02 03:20:23;;;;;;;41.00;25.27;;;;;;;;;;6131844;23;20018;-85
2021/05/02 03:22:51;;;;;;;41.75;25.73;;;;;;;;;;6155149;23;20021;-85
2021/05/02 03:25:22;;;;;;;44.30;26.55;;;;;;;;;;6158071;23;20021;-85
2021/05/02 03:27:59;;;;;;;40.03;23.10;;;;;;;;;;6139824;23;20091;-85
2021/05/02 03:30:26;;;;;;;38.20;23.92;;;;;;;;;;6140360;23;20021;-85
2021/05/02 03:32:54;;;;;;;41.15;25.02;;;;;;;;;;6141555;23;20026;-85
2021/05/02 03:35:27;;;;;;;41.40;26.30;;;;;;;;;;6167039;23;20021;-85
2021/05/02 03:38:03;;;;;;;43.58;27.02;;;;;;;;;;6139998;23;20047;-85
2021/05/02 03:40:29;;;;;;;46.95;25.95;;;;;;;;;;6133451;23;20037;-86
2021/05/02 03:43:08;;;;;;;46.83;27.45;;;;;;;;;;6131635;23;20055;-85
2021/05/02 03:45:34;;;;;;;46.83;27.48;;;;;;;;;;6132596;23;20032;-85
2021/05/02 03:48:00;;;;;;;43.13;26.25;;;;;;;;;;6146489;23;20014;-86
2021/05/02 03:50:27;;;;;;;40.70;26.75;;;;;;;;;;6149447;22;20026;-85
2021/05/02 03:52:53;;;;;;;42.92;27.25;;;;;;;;;;6136813;23;20022;-85
2021/05/02 03:55:19;;;;;;;44.28;27.40;;;;;;;;;;6157326;23;20026;-85
2021/05/02 03:57:45;;;;;;;51.28;29.50;;;;;;;;;;6131194;23;20029;-85
2021/05/02 04:00:11;;;;;;;38.47;26.17;;;;;;;;;;6172268;23;20032;-85
2021/05/02 04:02:38;;;;;;;39.80;25.63;;;;;;;;;;6141822;22;20037;-85
2021/05/02 04:05:05;;;;;;;39.05;26.65;;;;;;;;;;6158613;23;20252;-85
2021/05/02 04:07:49;;;;;;;45.35;26.92;;;;;;;;;;6127573;23;20049;-85
2021/05/02 04:10:16;;;;;;;44.47;27.65;;;;;;;;;;6126951;23;20056;-85
2021/05/02 04:12:42;;;;;;;49.17;30.48;;;;;;;;;;6127188;23;20025;-85
2021/05/02 04:15:08;;;;;;;43.78;29.17;;;;;;;;;;6127842;23;20395;-85
2021/05/02 04:17:35;;;;;;;46.90;29.90;;;;;;;;;;6125773;23;20034;-85
2021/05/02 04:20:01;;;;;;;45.63;30.05;;;;;;;;;;6128563;23;20026;-85
2021/05/02 04:22:30;;;;;;;48.22;30.15;;;;;;;;;;6129046;23;20022;-83
2021/05/02 04:24:57;;;;;;;49.80;29.40;;;;;;;;;;6133786;23;20152;-83
2021/05/02 04:27:24;;;;;;;46.92;29.05;;;;;;;;;;6134009;23;20318;-84
2021/05/02 04:29:51;;;;;;;45.22;28.17;;;;;;;;;;6130691;23;20022;-83
2021/05/02 04:32:17;;;;;;;41.70;27.92;;;;;;;;;;6142692;23;20024;-82
2021/05/02 04:34:44;;;;;;;43.88;27.02;;;;;;;;;;6142986;23;20022;-83
2021/05/02 04:37:11;;;;;;;43.30;28.17;;;;;;;;;;6144850;23;20033;-83
2021/05/02 04:39:39;;;;;;;42.75;27.90;;;;;;;;;;6145897;22;20009;-83
2021/05/02 04:42:05;;;;;;;45.85;28.58;;;;;;;;;;6145414;22;20028;-83
2021/05/02 04:44:32;;;;;;;46.58;29.92;;;;;;;;;;6145389;22;20206;-83
2021/05/02 04:47:00;;;;;;;43.25;28.77;;;;;;;;;;6138734;23;20026;-83
2021/05/02 04:49:27;;;;;;;41.38;27.92;;;;;;;;;;6131919;23;20022;-83
2021/05/02 04:51:53;;;;;;;46.92;28.27;;;;;;;;;;6131809;23;20052;-83
2021/05/02 04:54:23;;;;;;;41.55;26.60;;;;;;;;;;6134554;23;20025;-83
2021/05/02 04:56:49;;;;;;;41.50;26.48;;;;;;;;;;6137292;23;20021;-83
2021/05/02 04:59:16;;;;;;;39.95;26.20;;;;;;;;;;6135383;23;20026;-84
2021/05/02 05:01:43;;;;;;;41.15;25.02;;;;;;;;;;6134934;23;20025;-83
2021/05/02 05:04:10;;;;;;;42.67;25.52;;;;;;;;;;6135989;23;20049;-83
2021/05/02 05:06:36;;;;;;;38.97;24.55;;;;;;;;;;6137171;23;20022;-83
2021/05/02 05:09:03;;;;;;;33.15;22.48;;;;;;;;;;6164965;23;20057;-83
2021/05/02 05:11:48;;;;;;;34.40;24.08;;;;;;;;;;6162443;23;20025;-83
2021/05/02 05:14:15;;;;;;;33.53;20.30;;;;;;;;;;6137459;23;20025;-83
2021/05/02 05:16:41;;;;;;;30.73;19.92;;;;;;;;;;6137140;23;20032;-83
2021/05/02 05:19:07;;;;;;;29.08;18.90;;;;;;;;;;6135948;23;20029;-83
2021/05/02 05:21:37;;;;;;;27.80;18.48;;;;;;;;;;6162231;23;20305;-84
2021/05/02 05:24:05;;;;;;;26.20;16.52;;;;;;;;;;6162257;23;20071;-83
2021/05/02 05:26:31;;;;;;;24.40;14.77;;;;;;;;;;6138732;23;20025;-83
2021/05/02 05:28:58;;;;;;;25.52;16.50;;;;;;;;;;6162576;23;20025;-83
2021/05/02 05:31:25;;;;;;;23.80;15.52;;;;;;;;;;6162092;23;20041;-83
2021/05/02 05:33:51;;;;;;;26.33;16.58;;;;;;;;;;6136005;23;20185;-83
2021/05/02 05:36:18;;;;;;;25.45;14.98;;;;;;;;;;6135528;23;20083;-83
2021/05/02 05:38:51;;;;;;;20.23;14.52;;;;;;;;;;6161416;23;20030;-83
2021/05/02 05:41:17;;;;;;;22.17;14.18;;;;;;;;;;6135555;23;20061;-83
2021/05/02 05:43:43;;;;;;;17.75;13.52;;;;;;;;;;6160593;23;20105;-83
2021/05/02 05:46:13;;;;;;;17.58;13.35;;;;;;;;;;6136353;23;20112;-83
2021/05/02 05:48:41;;;;;;;17.65;12.68;;;;;;;;;;6137037;23;20021;-83
2021/05/02 05:51:09;;;;;;;16.48;12.75;;;;;;;;;;6137468;23;20082;-82
2021/05/02 05:53:36;;;;;;;18.45;13.10;;;;;;;;;;6136987;23;20030;-83
2021/05/02 05:56:03;;;;;;;17.17;13.18;;;;;;;;;;6161845;23;20021;-82
2021/05/02 05:58:31;;;;;;;16.08;12.70;;;;;;;;;;6164239;23;20067;-83
2021/05/02 06:00:58;;;;;;;17.50;12.50;;;;;;;;;;6164132;23;20036;-83
2021/05/02 06:03:25;;;;;;;17.25;11.27;;;;;;;;;;6146772;22;20025;-84
2021/05/02 06:05:51;;;;;;;17.33;12.35;;;;;;;;;;6148236;22;20014;-85
2021/05/02 06:08:18;;;;;;;18.98;11.02;;;;;;;;;;6161104;23;20025;-83
2021/05/02 06:10:47;;;;;;;13.10;11.13;;;;;;;;;;6157227;23;20133;-84
2021/05/02 06:13:17;;;;;;;15.07;10.30;;;;;;;;;;6159322;23;20026;-84
2021/05/02 06:15:47;;;;;;;12.27;9.95;;;;;;;;;;6136017;23;20021;-84
2021/05/02 06:18:17;;;;;;;13.23;9.27;;;;;;;;;;6135026;23;20040;-83
2021/05/02 06:20:44;;;;;;;14.15;10.30;;;;;;;;;;6161138;23;20091;-85
2021/05/02 06:23:10;;;;;;;11.32;9.88;;;;;;;;;;6136746;23;20029;-83
2021/05/02 06:25:38;;;;;;;14.25;10.00;;;;;;;;;;6162294;23;20071;-84
2021/05/02 06:28:07;;;;;;;13.32;9.55;;;;;;;;;;6135407;23;20025;-83
2021/05/02 06:30:34;;;;;;;14.13;9.90;;;;;;;;;;6161835;23;20361;-84
2021/05/02 06:33:01;;;;;;;16.88;10.43;;;;;;;;;;6162087;23;20032;-84
2021/05/02 06:35:39;;;;;;;17.92;10.82;;;;;;;;;;6139869;23;20037;-84
2021/05/02 06:38:05;;;;;;;14.00;10.57;;;;;;;;;;6140767;22;20028;-83
2021/05/02 06:40:34;;;;;;;18.35;10.50;;;;;;;;;;6149335;22;20039;-85
2021/05/02 06:43:01;;;;;;;11.43;9.80;;;;;;;;;;6148648;22;20030;-84
2021/05/02 06:45:28;;;;;;;16.00;12.07;;;;;;;;;;6148243;22;20033;-83
2021/05/02 06:47:58;;;;;;;18.77;11.27;;;;;;;;;;6171539;23;20050;-83
2021/05/02 06:50:25;;;;;;;18.60;11.90;;;;;;;;;;6170820;23;20032;-83
2021/05/02 06:52:52;;;;;;;14.95;10.88;;;;;;;;;;6143596;23;20077;-84
2021/05/02 06:55:22;;;;;;;12.95;10.18;;;;;;;;;;6133636;23;20142;-87
2021/05/02 06:57:55;;;;;;;14.27;10.07;;;;;;;;;;6133811;23;20030;-87
2021/05/02 07:00:22;;;;;;;15.85;11.25;;;;;;;;;;6130399;23;20036;-86
2021/05/02 07:02:48;;;;;;;14.23;10.50;;;;;;;;;;6155462;23;20040;-87
2021/05/02 07:05:15;;;;;;;17.13;10.90;;;;;;;;;;6131818;23;20029;-86
2021/05/02 07:07:41;;;;;;;14.00;10.13;;;;;;;;;;6162779;23;20013;-86
2021/05/02 07:10:10;;;;;;;13.45;9.50;;;;;;;;;;6147389;22;20073;-84
2021/05/02 07:12:41;;;;;;;11.85;8.52;;;;;;;;;;6167901;23;20091;-87
2021/05/02 07:15:15;;;;;;;12.90;8.60;;;;;;;;;;6110664;23;20079;-85
2021/05/02 07:17:41;;;;;;;19.00;9.18;;;;;;;;;;6128820;23;20240;-86
2021/05/02 07:20:10;;;;;;;12.48;8.65;;;;;;;;;;6141076;22;20024;-84
2021/05/02 07:22:43;;;;;;;9.13;6.45;;;;;;;;;;6138965;23;20315;-85
2021/05/02 07:25:12;;;;;;;10.30;7.32;;;;;;;;;;6158036;23;20044;-86
2021/05/02 07:27:45;;;;;;;10.57;6.82;;;;;;;;;;6128729;23;20021;-86
2021/05/02 07:30:12;;;;;;;7.60;5.70;;;;;;;;;;6126395;23;20048;-86
2021/05/02 07:32:51;;;;;;;10.15;6.00;;;;;;;;;;6130022;23;20025;-88
2021/05/02 07:35:18;;;;;;;9.57;6.40;;;;;;;;;;6151457;23;20036;-86
2021/05/02 07:37:45;;;;;;;9.10;6.00;;;;;;;;;;6124218;23;20026;-86
2021/05/02 07:40:11;;;;;;;7.88;5.13;;;;;;;;;;6152842;23;20029;-86
2021/05/02 07:42:38;;;;;;;7.25;5.35;;;;;;;;;;6152747;23;20025;-86
2021/05/02 07:45:05;;;;;;;6.43;5.20;;;;;;;;;;6127963;23;20026;-86
2021/05/02 07:47:32;;;;;;;8.15;5.18;;;;;;;;;;6152677;23;20117;-86
2021/05/02 07:49:59;;;;;;;7.45;4.85;;;;;;;;;;6154158;23;20025;-86
2021/05/02 07:52:25;;;;;;;7.50;4.78;;;;;;;;;;6153994;23;20232;-85
2021/05/02 07:54:51;;;;;;;8.93;5.03;;;;;;;;;;6154612;23;20014;-85
2021/05/02 07:57:17;;;;;;;5.55;4.18;;;;;;;;;;6128972;23;20326;-85
2021/05/02 07:59:44;;;;;;;7.38;4.32;;;;;;;;;;6128181;23;20030;-85
2021/05/02 08:02:10;;;;;;;7.07;3.75;;;;;;;;;;6127318;23;20022;-85
2021/05/02 08:04:40;;;;;;;5.70;3.70;;;;;;;;;;6127981;23;20105;-86
2021/05/02 08:07:44;;;;;;;6.38;4.10;;;;;;;;;;6127901;23;20322;-86
2021/05/02 08:10:11;;;;;;;4.53;4.05;;;;;;;;;;6130410;23;20030;-86
2021/05/02 08:12:37;;;;;;;5.88;3.85;;;;;;;;;;6126525;23;20032;-86
2021/05/02 08:15:04;;;;;;;5.40;4.45;;;;;;;;;;6149877;23;20021;-85
2021/05/02 08:17:31;;;;;;;7.10;4.28;;;;;;;;;;6124711;23;20072;-85
2021/05/02 08:19:57;;;;;;;6.82;4.45;;;;;;;;;;6151592;23;20021;-86
2021/05/02 08:22:29;;;;;;;5.20;4.15;;;;;;;;;;6126911;23;20032;-86
2021/05/02 08:24:56;;;;;;;4.82;4.30;;;;;;;;;;6127547;23;20190;-84
2021/05/02 08:27:22;;;;;;;8.55;5.35;;;;;;;;;;6126602;23;20052;-86
2021/05/02 08:29:49;;;;;;;10.35;6.03;;;;;;;;;;6153611;23;20025;-85
2021/05/02 08:32:15;;;;;;;8.52;6.28;;;;;;;;;;6155523;23;20086;-85
2021/05/02 08:34:42;;;;;;;14.32;7.75;;;;;;;;;;6127938;23;20030;-84
2021/05/02 08:37:09;;;;;;;10.85;7.55;;;;;;;;;;6154153;23;20419;-84
2021/05/02 08:39:35;;;;;;;8.30;5.88;;;;;;;;;;6125656;23;20099;-84
2021/05/02 08:42:01;;;;;;;10.30;6.13;;;;;;;;;;6127946;23;20029;-84
2021/05/02 08:44:30;;;;;;;9.65;6.25;;;;;;;;;;6157479;23;20052;-85
2021/05/02 08:47:00;;;;;;;10.38;5.68;;;;;;;;;;6132719;23;20044;-85
2021/05/02 08:49:26;;;;;;;7.82;5.43;;;;;;;;;;6150749;23;20033;-85
2021/05/02 08:51:53;;;;;;;7.88;6.07;;;;;;;;;;6154100;23;20049;-86
2021/05/02 08:54:19;;;;;;;8.27;6.03;;;;;;;;;;6127410;23;20087;-86
2021/05/02 08:56:46;;;;;;;8.40;6.00;;;;;;;;;;6127353;23;20047;-84
2021/05/02 08:59:13;;;;;;;8.85;5.63;;;;;;;;;;6130867;23;20025;-84
2021/05/02 09:01:42;;;;;;;10.07;5.68;;;;;;;;;;6137370;23;20026;-85
2021/05/02 09:04:09;;;;;;;6.30;5.30;;;;;;;;;;6160964;23;20026;-85
2021/05/02 09:06:39;;;;;;;6.80;4.93;;;;;;;;;;6131174;23;20151;-85
2021/05/02 09:09:09;;;;;;;8.38;4.50;;;;;;;;;;6158001;23;20026;-84
2021/05/02 09:11:36;;;;;;;6.25;4.55;;;;;;;;;;6127103;23;20055;-86
2021/05/02 09:14:05;;;;;;;7.80;4.65;;;;;;;;;;6141750;23;20146;-87
2021/05/02 09:16:52;;;;;;;10.52;4.85;;;;;;;;;;6166649;23;20029;-86
2021/05/02 09:19:22;;;;;;;5.20;4.05;;;;;;;;;;6136413;23;20116;-88
2021/05/02 09:21:49;;;;;;;6.88;5.03;;;;;;;;;;6154521;23;20056;-87
2021/05/02 09:24:26;;;;;;;9.05;4.20;;;;;;;;;;6126813;23;20394;-85
2021/05/02 09:27:06;;;;;;;5.55;3.67;;;;;;;;;;6156276;23;20074;-88
2021/05/02 09:29:34;;;;;;;4.70;3.60;;;;;;;;;;6136194;23;20022;-85
2021/05/02 09:32:30;;;;;;;6.35;3.92;;;;;;;;;;6156494;23;20028;-89
2021/05/02 09:34:57;;;;;;;7.57;3.45;;;;;;;;;;6132570;23;20108;-86
2021/05/02 09:37:36;;;;;;;5.20;3.40;;;;;;;;;;6134328;23;20012;-86
2021/05/02 09:40:18;;;;;;;6.85;3.67;;;;;;;;;;6163351;23;20025;-87
2021/05/02 09:42:49;;;;;;;8.10;3.53;;;;;;;;;;6168575;23;20018;-87
2021/05/02 09:45:15;;;;;;;7.65;3.90;;;;;;;;;;6144937;22;20041;-85
2021/05/02 09:47:44;;;;;;;8.25;3.72;;;;;;;;;;6143441;23;20043;-85
2021/05/02 09:50:44;;;;;;;8.10;4.40;;;;;;;;;;6143846;22;20190;-89
2021/05/02 09:53:15;;;;;;;7.93;3.67;;;;;;;;;;6157335;23;20025;-85
2021/05/02 09:56:12;;;;;;;6.90;4.35;;;;;;;;;;6164216;23;20021;-86
2021/05/02 09:58:38;;;;;;;9.90;4.78;;;;;;;;;;6139693;23;20029;-85
2021/05/02 10:01:06;;;;;;;7.03;4.10;;;;;;;;;;6165246;23;20021;-86
2021/05/02 10:03:52;;;;;;;8.13;4.40;;;;;;;;;;6142370;23;20181;-89
2021/05/02 10:06:28;;;;;;;5.80;4.32;;;;;;;;;;6166108;23;20013;-84
2021/05/02 10:09:06;;;;;;;8.30;5.65;;;;;;;;;;6162491;23;20090;-83
2021/05/02 10:11:35;;;;;;;7.57;5.50;;;;;;;;;;6132867;23;20083;-86
2021/05/02 10:14:21;;;;;;;9.52;6.93;;;;;;;;;;6135688;23;20022;-84
2021/05/02 10:16:58;;;;;;;;;;;;;;;;;;;;;
2021/05/02 10:19:51;;;;;;;10.48;6.15;;;;;;;;;;6151089;23;20073;-83
2021/05/02 10:22:21;;;;;;;10.50;6.88;;;;;;;;;;6158148;23;20055;-84
2021/05/02 10:24:50;;;;;;;8.43;5.43;;;;;;;;;;6167491;23;20028;-84
2021/05/02 10:27:17;;;;;;;10.90;5.85;;;;;;;;;;6144081;22;20014;-84
2021/05/02 10:29:56;;;;;;;7.97;5.28;;;;;;;;;;6137641;22;20047;-83
2021/05/02 10:32:32;;;;;;;8.73;5.18;;;;;;;;;;6137172;23;20060;-83
2021/05/02 10:35:09;;;;;;;7.05;5.10;;;;;;;;;;6160047;23;20048;-82
2021/05/02 10:37:37;;;;;;;5.30;4.57;;;;;;;;;;6170553;23;20284;-83
2021/05/02 10:40:06;;;;;;;11.10;5.72;;;;;;;;;;6135151;23;20176;-84
2021/05/02 10:42:37;;;;;;;7.97;4.63;;;;;;;;;;6127566;23;20025;-85
2021/05/02 10:45:22;;;;;;;7.30;4.82;;;;;;;;;;6155065;23;20009;-86
2021/05/02 10:47:49;;;;;;;8.15;3.50;;;;;;;;;;6130528;23;20033;-85
2021/05/02 10:50:24;;;;;;;5.28;3.10;;;;;;;;;;6154384;23;20053;-85
2021/05/02 10:53:04;;;;;;;7.15;3.58;;;;;;;;;;6123586;23;20086;-86
2021/05/02 10:55:49;;;;;;;10.07;3.38;;;;;;;;;;6147625;23;20371;-85
2021/05/02 10:58:21;;;;;;;7.65;3.83;;;;;;;;;;6148697;23;20415;-86
2021/05/02 11:01:08;;;;;;;4.65;3.22;;;;;;;;;;6122234;23;20036;-86
2021/05/02 11:03:40;;;;;;;4.32;3.47;;;;;;;;;;6127884;23;20139;-86
2021/05/02 11:06:08;;;;;;;8.02;3.60;;;;;;;;;;6149050;23;20026;-86
2021/05/02 11:08:51;;;;;;;13.25;4.45;;;;;;;;;;6115437;23;20034;-86
2021/05/02 11:11:27;;;;;;;6.32;4.20;;;;;;;;;;6115198;23;20029;-86
2021/05/02 11:14:21;;;;;;;3.88;2.78;;;;;;;;;;6115441;23;20026;-85
2021/05/02 11:16:48;;;;;;;5.60;2.90;;;;;;;;;;6118456;23;20240;-85
2021/05/02 11:19:22;;;;;;;8.20;4.15;;;;;;;;;;6121265;23;20041;-85
2021/05/02 11:21:52;;;;;;;8.90;3.53;;;;;;;;;;6119892;23;20113;-84
2021/05/02 11:24:25;;;;;;;6.85;3.83;;;;;;;;;;6118044;23;20447;-84
2021/05/02 11:29:49;;;;;;;5.40;4.30;;;;;;;;;;6124097;23;19996;-83
2021/05/02 11:32:31;;;;;;;8.25;4.00;;;;;;;;;;6118367;23;20296;-82
2021/05/02 11:35:01;;;;;;;11.32;4.38;;;;;;;;;;6116104;23;20028;-83
2021/05/02 11:37:38;;;;;;;6.82;3.85;;;;;;;;;;6117570;23;20079;-83
2021/05/02 11:40:24;;;;;;;8.75;4.75;;;;;;;;;;6117306;23;20232;-84
2021/05/02 11:42:51;;;;;;;;;;;;;;;;;;6102811;23;20030;-85
2021/05/02 11:45:21;;;;;;;5.93;3.22;;;;;;;;;;6117235;23;19936;-84
2021/05/02 11:47:47;;;;;;;6.43;3.63;;;;;;;;;;6114951;23;20033;-84
2021/05/02 11:50:14;;;;;;;8.13;3.33;;;;;;;;;;6117079;23;20026;-85
2021/05/02 11:52:53;;;;;;;8.68;4.07;;;;;;;;;;6117490;23;20052;-85
2021/05/02 11:55:29;;;;;;;5.95;3.15;;;;;;;;;;6117508;23;20131;-85
2021/05/02 11:57:55;;;;;;;5.53;3.45;;;;;;;;;;6121440;23;20046;-85
2021/05/02 12:00:39;;;;;;;9.20;3.70;;;;;;;;;;6122347;23;20221;-85
2021/05/02 12:03:06;;;;;;;5.10;3.60;;;;;;;;;;6131737;23;20033;-83
2021/05/02 12:05:33;;;;;;;4.85;2.90;;;;;;;;;;6130999;23;20231;-84
2021/05/02 12:08:27;;;;;;;8.20;2.92;;;;;;;;;;6150984;23;20057;-85
2021/05/02 12:10:56;;;;;;;3.95;1.90;;;;;;;;;;6137104;23;20025;-85
2021/05/02 12:13:31;;;;;;;7.38;2.50;;;;;;;;;;6163447;23;20014;-84
2021/05/02 12:16:04;;;;;;;5.15;2.70;;;;;;;;;;6138775;23;20013;-84
2021/05/02 12:18:45;;;;;;;8.65;2.03;;;;;;;;;;6135068;23;20036;-84
2021/05/02 12:21:12;;;;;;;4.72;1.95;;;;;;;;;;6167843;23;20017;-86
2021/05/02 12:23:38;;;;;;;6.18;2.03;;;;;;;;;;6167265;23;20021;-86
2021/05/02 12:26:09;;;;;;;6.30;1.52;;;;;;;;;;6140905;23;20006;-84
2021/05/02 12:28:42;;;;;;;10.98;1.63;;;;;;;;;;6168319;23;20177;-85
2021/05/02 12:31:10;;;;;;;4.75;1.55;;;;;;;;;;6138478;22;20032;-86
2021/05/02 12:33:38;;;;;;;4.85;1.65;;;;;;;;;;6161168;23;20029;-85
2021/05/02 12:36:09;;;;;;;4.22;1.73;;;;;;;;;;6128744;23;20029;-85
2021/05/02 12:38:36;;;;;;;5.00;1.80;;;;;;;;;;6125127;23;20198;-85
2021/05/02 12:41:02;;;;;;;7.63;2.10;;;;;;;;;;6150572;23;20025;-85
2021/05/02 12:43:30;;;;;;;5.57;1.75;;;;;;;;;;6149691;23;20056;-85
2021/05/02 12:45:57;;;;;;;3.67;1.40;;;;;;;;;;6123173;23;20212;-84
2021/05/02 12:48:28;;;;;;;6.80;1.80;;;;;;;;;;6150991;23;20048;-85
2021/05/02 12:50:58;;;;;;;3.28;1.50;;;;;;;;;;6121954;23;20044;-84
2021/05/02 12:53:42;;;;;;;3.83;1.92;;;;;;;;;;6147393;23;20030;-85
2021/05/02 12:56:09;;;;;;;2.97;1.88;;;;;;;;;;6122405;23;20083;-85
2021/05/02 12:58:36;;;;;;;3.10;1.90;;;;;;;;;;6123440;23;20041;-86
2021/05/02 13:01:14;;;;;;;3.47;1.55;;;;;;;;;;6123009;23;20029;-86
2021/05/02 13:03:53;;;;;;;3.88;1.83;;;;;;;;;;6151844;23;20316;-85
2021/05/02 13:06:21;;;;;;;3.05;1.60;;;;;;;;;;6140016;22;20032;-85
2021/05/02 13:08:52;;;;;;;4.72;1.98;;;;;;;;;;6160880;23;20026;-86
2021/05/02 13:11:29;;;;;;;8.02;2.22;;;;;;;;;;6139421;23;20033;-84
2021/05/02 13:14:15;;;;;;;6.53;2.03;;;;;;;;;;6141067;23;20056;-83
2021/05/02 13:16:42;;;;;;;5.75;2.50;;;;;;;;;;6139477;22;20017;-82
2021/05/02 13:19:29;;;;;;;5.00;2.40;;;;;;;;;;6139219;23;20025;-80
2021/05/02 13:22:15;;;;;;;5.77;2.20;;;;;;;;;;6136006;23;20029;-81
2021/05/02 13:24:41;;;;;;;;;;;;;;;;;;6137408;23;20083;-82
2021/05/02 13:27:07;;;;;;;3.67;2.03;;;;;;;;;;6134079;23;19920;-82
2021/05/02 13:29:45;;;;;;;5.50;1.95;;;;;;;;;;6135065;23;20101;-82
2021/05/02 13:32:19;;;;;;;4.35;2.47;;;;;;;;;;6132187;23;20078;-81
2021/05/02 13:34:46;;;;;;;6.22;2.95;;;;;;;;;;6126245;23;20045;-82
2021/05/02 13:37:12;;;;;;;5.55;2.40;;;;;;;;;;6146859;23;20118;-83
2021/05/02 13:39:39;;;;;;;5.35;2.70;;;;;;;;;;6122242;23;20116;-83
2021/05/02 13:42:05;;;;;;;11.20;2.80;;;;;;;;;;6129577;23;20013;-83
2021/05/02 13:44:42;;;;;;;8.75;3.20;;;;;;;;;;6142984;22;20030;-83
2021/05/02 13:47:09;;;;;;;7.18;2.95;;;;;;;;;;6159748;23;20022;-82
2021/05/02 13:49:35;;;;;;;6.82;3.10;;;;;;;;;;6122704;23;20106;-80
2021/05/02 13:52:02;;;;;;;4.03;2.80;;;;;;;;;;6124074;23;20041;-82
2021/05/02 13:54:28;;;;;;;4.95;2.70;;;;;;;;;;6161627;23;20064;-81
2021/05/02 13:56:55;;;;;;;9.73;2.83;;;;;;;;;;6137683;23;20053;-81
2021/05/02 13:59:23;;;;;;;5.32;2.15;;;;;;;;;;6123518;23;20037;-82
2021/05/02 14:01:49;;;;;;;7.95;3.22;;;;;;;;;;6147779;23;20333;-82
2021/05/02 14:04:22;;;;;;;9.63;2.60;;;;;;;;;;6145417;23;20026;-82
2021/05/02 14:06:49;;;;;;;8.57;2.30;;;;;;;;;;6121605;23;20026;-83
2021/05/02 14:09:17;;;;;;;5.30;2.00;;;;;;;;;;6146771;23;20436;-83
2021/05/02 14:11:47;;;;;;;5.45;2.47;;;;;;;;;;6146415;23;20379;-84
2021/05/02 14:14:13;;;;;;;3.75;2.33;;;;;;;;;;6120518;23;20032;-84
2021/05/02 14:16:39;;;;;;;3.75;1.98;;;;;;;;;;6145135;23;20187;-84
2021/05/02 14:19:08;;;;;;;9.00;2.15;;;;;;;;;;6148338;23;20113;-82
2021/05/02 14:21:35;;;;;;;10.05;2.30;;;;;;;;;;6119534;23;20037;-82
2021/05/02 14:24:05;;;;;;;6.75;2.55;;;;;;;;;;6122035;23;20410;-83
2021/05/02 14:26:31;;;;;;;5.13;2.33;;;;;;;;;;6121941;23;20081;-84
2021/05/02 14:28:58;;;;;;;8.35;2.58;;;;;;;;;;6127166;23;20034;-84
2021/05/02 14:31:24;;;;;;;8.32;2.15;;;;;;;;;;6127393;23;20025;-85
2021/05/02 14:33:54;;;;;;;4.47;2.08;;;;;;;;;;6128294;23;20040;-86
2021/05/02 14:36:20;;;;;;;7.75;1.92;;;;;;;;;;6150949;23;20029;-85
2021/05/02 14:38:46;;;;;;;7.50;1.95;;;;;;;;;;6124324;23;20272;-85
2021/05/02 14:41:14;;;;;;;6.28;2.25;;;;;;;;;;6121414;23;20025;-85
2021/05/02 14:43:41;;;;;;;9.82;2.20;;;;;;;;;;6111109;23;20086;-85
2021/05/02 14:46:09;;;;;;;8.35;2.50;;;;;;;;;;6166437;23;20014;-86
2021/05/02 14:48:39;;;;;;;4.45;1.88;;;;;;;;;;6166927;23;20010;-88
2021/05/02 14:51:06;;;;;;;4.28;1.90;;;;;;;;;;6163671;23;20029;-85